Terminal Aerodrome Forecast
Issued by NWS Los Angeles, CA

Home | Current Version | Previous Version | Text Only | Print | Product List | Glossary On
Versions: 1 2 3 4 5 6 7 8 9 10 11 12 13 14 15 16 17 18 19 20 21 22 23 24 25 26 27
000
FTUS46 KLOX 291401 AAB
TAFSMX
TAF AMD
KSMX 291401Z 2914/3012 VRB03KT 2SM BR OVC005
     FM291600 VRB03KT 5SM BR OVC006
     FM291800 30006KT P6SM SKC
     FM292100 31015KT P6SM SKC
     FM300300 30007KT 6SM BR BKN005=

USA.gov is the U.S. government's official web portal to all federal, state and local government web resources and services.